Bassett, Nebraska
Current Conditions -  °F | °C
As of 8:35 PM on Saturday 22 Nov 2014 (Local Time) from KANW Reporting Station
Overcast Overcast  
Wind Chill: 45°   Ceiling: 10000
Heat Index: 49°   Visibility: 10mi
Dew Point: 25°   Wind: 9mph
Humidity: 39%   Direction: 210°SSW
Pressure: 29.48"   Gusts: NA
Location:  42.59°N, 99.54°W
Report Text: KANW 230235Z AUTO 21008KT 10SM OVC100 10/M04 A2948 RMK AO2 T00961037
Loading
Personal Weather Stations






























Interactive Weather Map New forecast layout! Learn more

10-Day Weather Forecast

Advertisements
Track Severe Weather on mobile